GW2090 Weather Reports


Display with metric or nautical units.
time (UTC)temp
F
wind
direction
speed
MPH
gust
MPH
rain 1hr
in
rain 24hr
in
rain mn
in
humidity
%
barometer
mb
20240228190050 47 202 3.0 11.0 0.00 0.18 0.18 93 1002.2
20240228184558 47 186 4.0 12.0 0.00 0.18 0.18 93 1002.6
20240228183057 47 175 4.0 12.0 0.00 0.18 0.18 93 1003.0
20240228181545 47 182 4.0 10.0 0.00 0.18 0.18 93 1003.3
20240228180120 47 211 7.0 16.0 0.00 0.18 0.18 93 1003.6
20240228174554 47 179 6.0 15.0 0.00 0.18 0.18 93 1003.8
20240228173129 47 198 6.0 15.0 0.00 0.18 0.18 93 1004.0
20240228171607 47 144 8.0 17.0 0.00 0.18 0.18 93 1004.2
20240228170058 47 164 6.0 20.0 0.00 0.18 0.18 93 1004.4
20240228164612 47 169 7.0 16.0 0.00 0.18 0.18 93 1004.6
20240228163100 47 205 8.0 19.0 0.00 0.18 0.18 93 1004.8
20240228161559 47 219 6.0 19.0 0.00 0.18 0.18 93 1005.1
20240228160100 47 165 7.0 18.0 0.00 0.18 0.18 93 1005.5
20240228154558 47 190 5.0 15.0 0.00 0.18 0.18 93 1005.6
20240228153112 47 172 5.0 19.0 0.01 0.18 0.18 93 1005.7
20240228151552 47 195 6.0 15.0 0.01 0.18 0.18 93 1006.5
20240228150057 47 180 8.0 19.0 0.02 0.18 0.18 93 1006.7
20240228144600 47 139 10.0 17.0 0.05 0.18 0.18 93 1007.2
20240228143058 46 200 6.0 18.0 0.05 0.17 0.17 93 1007.2
20240228141557 46 175 7.0 21.0 0.06 0.17 0.17 93 1007.5
20240228140056 46 144 7.0 15.0 0.05 0.16 0.16 92 1007.9
20240228134601 46 213 7.0 19.0 0.02 0.13 0.13 92 1008.2
20240228133055 47 169 8.0 23.0 0.02 0.12 0.12 93 1008.4
20240228131611 46 191 6.0 16.0 0.01 0.11 0.11 93 1009.0
20240228130058 46 160 6.0 14.0 0.01 0.11 0.11 93 1009.3
20240228124554 46 187 5.0 15.0 0.01 0.11 0.11 93 1009.6
20240228123105 46 163 5.0 16.0 0.00 0.10 0.10 93 1009.6
20240228121600 46 184 7.0 16.0 0.00 0.10 0.10 93 1009.6
20240228120053 46 169 5.0 15.0 0.00 0.10 0.10 93 1009.6
20240228114600 46 215 4.0 14.0 0.00 0.10 0.10 93 1009.6
20240228113056 46 186 6.0 14.0 0.00 0.10 0.10 93 1009.7
20240228111549 46 185 5.0 11.0 0.00 0.10 0.10 93 1009.8
20240228110050 46 203 4.0 15.0 0.00 0.10 0.10 93 1009.9
20240228104554 45 177 4.0 13.0 0.00 0.10 0.10 92 1010.1
20240228103051 46 188 5.0 14.0 0.00 0.10 0.10 93 1010.2
20240228101549 46 196 4.0 19.0 0.00 0.10 0.10 93 1010.3
20240228100052 46 127 6.0 20.0 0.00 0.10 0.10 93 1010.2
20240228094550 46 182 9.0 18.0 0.01 0.10 0.10 92 1010.4
20240228093051 46 198 8.0 19.0 0.01 0.10 0.10 93 1010.3
20240228091605 47 186 8.0 22.0 0.01 0.10 0.10 92 1010.6
20240228090103 47 183 7.0 16.0 0.01 0.10 0.10 93 1010.7
20240228084558 47 211 8.0 15.0 0.00 0.09 0.09 92 1010.6
20240228083050 47 195 6.0 17.0 0.00 0.09 0.09 92 1010.8
20240228081608 47 204 7.0 19.0 0.01 0.09 0.09 93 1010.9
20240228080057 47 194 7.0 20.0 0.02 0.09 0.09 93 1011.2
20240228074557 47 194 6.0 14.0 0.03 0.09 0.09 93 1011.3
20240228073053 47 175 7.0 22.0 0.05 0.09 0.09 94 1011.4
20240228071554 47 128 6.0 15.0 0.04 0.08 0.08 94 1011.3
20240228070101 46 186 8.0 17.0 0.03 0.07 0.07 94 1011.4
20240228064558 45 148 6.0 14.0 0.03 0.06 0.06 94 1011.7
20240228063059 44 360 5.0 14.0 0.03 0.04 0.04 94 1012.4
20240228061607 42 186 3.0 7.0 0.03 0.04 0.04 93 1012.6
20240228060101 41 176 0.0 5.0 0.04 0.04 0.04 93 1012.5
20240228054600 39 0 0.0 4.0 0.03 0.03 0.03 93 1012.9
20240228053050 38 140 0.0 2.0 0.01 0.01 0.01 93 1013.3
20240228051554 37 0 0.0 1.0 0.01 0.01 0.01 93 1013.3
20240228050059 37 0 0.0 0.0 0.00 0.00 0.00 92 1013.7
20240228044559 36 0 0.0 1.0 0.00 0.00 0.00 92 1013.8
20240228043054 36 0 0.0 0.0 0.00 0.00 0.00 93 1013.9
20240228041556 35 0 0.0 0.0 0.00 0.00 0.00 92 1014.1
20240228040103 35 0 0.0 0.0 0.00 0.00 0.00 92 1014.4
20240228034555 34 0 0.0 1.0 0.00 0.00 0.00 91 1014.8
20240228033054 34 0 0.0 0.0 0.00 0.00 0.00 91 1015.1
20240228031551 34 0 0.0 0.0 0.00 0.00 0.00 91 1015.0
20240228030106 35 0 0.0 0.0 0.00 0.00 0.00 91 1015.0
20240228024555 35 0 0.0 0.0 0.00 0.00 0.00 91 1015.2
20240228023105 36 0 0.0 1.0 0.00 0.00 0.00 91 1015.0
20240228021601 36 0 0.0 0.0 0.00 0.00 0.00 91 1015.2
20240228020059 37 0 0.0 0.0 0.00 0.00 0.00 91 1015.2
20240228014546 37 0 0.0 0.0 0.00 0.00 0.00 91 1015.5
20240228013058 38 0 0.0 2.0 0.00 0.00 0.00 92 1015.3
20240228011602 38 0 0.0 3.0 0.00 0.00 0.00 92 1015.0
20240228010056 38 0 0.0 4.0 0.00 0.00 0.00 92 1015.1
20240228004554 38 38 1.0 3.0 0.00 0.00 0.00 92 1015.2
20240228003100 37 0 1.0 3.0 0.00 0.00 0.00 92 1015.4
20240228001556 37 34 1.0 4.0 0.00 0.00 0.00 91 1015.6
20240228000053 37 0 0.0 2.0 0.00 0.00 0.00 91 1015.9
20240227234550 37 0 0.0 1.0 0.00 0.00 0.00 91 1016.0
20240227233049 37 0 0.0 3.0 0.00 0.00 0.00 91 1016.2
20240227231552 37 0 1.0 4.0 0.00 0.00 0.00 91 1016.1
20240227230055 37 49 0.0 3.0 0.00 0.00 0.00 91 1016.2
20240227224559 37 55 0.0 2.0 0.00 0.00 0.00 90 1016.2
20240227223056 37 0 0.0 3.0 0.00 0.00 0.00 90 1016.5
20240227221614 37 88 0.0 2.0 0.00 0.00 0.00 90 1016.7
20240227220115 37 92 0.0 6.0 0.00 0.00 0.00 90 1017.0
20240227214555 37 0 1.0 3.0 0.00 0.00 0.00 89 1017.0
20240227213106 38 59 0.0 3.0 0.00 0.00 0.00 89 1017.2
20240227211600 38 0 0.0 4.0 0.00 0.00 0.00 89 1017.3
20240227210136 38 90 1.0 4.0 0.00 0.00 0.00 89 1017.6
20240227204547 37 81 0.0 4.0 0.00 0.00 0.00 89 1017.6
20240227203048 37 140 1.0 4.0 0.00 0.00 0.00 88 1017.6
20240227201552 37 257 2.0 6.0 0.00 0.00 0.00 88 1017.6
20240227200048 37 38 0.0 5.0 0.00 0.00 0.00 89 1017.7
20240227194558 37 107 1.0 6.0 0.00 0.00 0.00 88 1017.9
20240227193100 37 113 2.0 6.0 0.00 0.00 0.00 87 1018.0
20240227191551 37 86 1.0 4.0 0.00 0.00 0.00 86 1018.0